createdAt,value
2023-06-25T00:03:15.247Z,100594.19
2023-06-25T00:08:14.140Z,100590.34
2023-06-25T00:13:12.973Z,100587.69
2023-06-25T00:18:11.795Z,100585.50
2023-06-25T00:23:12.080Z,100592.19
2023-06-25T00:28:10.912Z,100595.69
2023-06-25T00:33:10.279Z,100590.41
2023-06-25T00:38:14.991Z,100588.19
2023-06-25T00:43:16.689Z,100605.72
2023-06-25T00:48:15.762Z,100613.13
2023-06-25T00:53:16.395Z,100633.78
2023-06-25T00:58:15.126Z,100737.13
2023-06-25T01:03:25.553Z,100746.25
2023-06-25T01:08:30.230Z,100766.53
2023-06-25T01:13:29.144Z,100761.41
2023-06-25T01:18:28.082Z,100753.66
2023-06-25T01:23:30.916Z,100769.03
2023-06-25T01:28:29.814Z,100763.63
2023-06-25T01:33:28.624Z,100766.63
2023-06-25T01:38:31.267Z,100761.75
2023-06-25T01:43:31.924Z,100769.94
2023-06-25T01:48:32.564Z,100759.97
2023-06-25T01:53:32.858Z,100756.63
2023-06-25T01:58:31.746Z,100764.53
2023-06-25T02:03:30.746Z,100764.53
2023-06-25T02:08:29.533Z,100761.66
2023-06-25T02:13:29.829Z,100770.66
2023-06-25T02:18:29.555Z,100774.97
2023-06-25T02:23:28.509Z,100772.69
2023-06-25T02:28:29.193Z,100772.94
2023-06-25T02:33:28.016Z,100773.16
2023-06-25T02:38:26.887Z,100772.44
2023-06-25T02:43:25.791Z,100765.19
2023-06-25T02:48:26.449Z,100768.56
2023-06-25T02:53:25.285Z,100771.03
2023-06-25T02:58:27.038Z,100769.69
2023-06-25T03:03:27.307Z,100766.59
2023-06-25T03:08:26.548Z,100760.13
2023-06-25T03:13:25.775Z,100757.34
2023-06-25T03:18:26.646Z,100756.13
2023-06-25T03:23:26.637Z,100747.50
2023-06-25T03:28:26.280Z,100753.16
2023-06-25T03:33:27.384Z,100747.88
2023-06-25T03:38:26.174Z,100744.16
2023-06-25T03:43:28.880Z,100739.13
2023-06-25T03:48:29.773Z,100739.13
2023-06-25T03:53:29.098Z,100736.91
2023-06-25T03:58:28.004Z,100739.41
2023-06-25T04:03:26.960Z,100737.09
2023-06-25T04:08:27.065Z,100723.59
2023-06-25T04:13:26.107Z,100725.53
2023-06-25T04:18:24.978Z,100715.66
2023-06-25T04:23:23.722Z,100718.22
2023-06-25T04:28:24.188Z,100722.00
2023-06-25T04:33:23.156Z,100726.50
2023-06-25T04:38:22.027Z,100728.75
2023-06-25T04:43:21.675Z,100731.63
2023-06-25T04:48:22.499Z,100730.19
2023-06-25T04:53:21.395Z,100734.41
2023-06-25T04:58:20.171Z,100733.94
2023-06-25T05:03:18.983Z,100731.84
2023-06-25T05:08:19.364Z,100734.31
2023-06-25T05:13:18.266Z,100732.53
2023-06-25T05:18:17.256Z,100727.78
2023-06-25T05:23:16.069Z,100731.72
2023-06-25T05:28:16.442Z,100730.78
2023-06-25T05:33:15.280Z,100734.53
2023-06-25T05:38:14.106Z,100724.47
2023-06-25T05:43:13.255Z,100730.34
2023-06-25T05:48:13.625Z,100727.22
2023-06-25T05:53:12.432Z,100727.78
2023-06-25T05:58:11.278Z,100731.59
2023-06-25T06:03:10.196Z,100734.22
2023-06-25T06:08:10.426Z,100746.81
2023-06-25T06:13:12.464Z,100744.75
2023-06-25T06:18:11.433Z,100746.53
2023-06-25T06:23:12.964Z,100741.69
2023-06-25T06:28:11.771Z,100751.88
2023-06-25T06:33:12.363Z,100736.28
2023-06-25T06:38:15.249Z,100736.38
2023-06-25T06:43:14.097Z,100738.88
2023-06-25T06:48:13.056Z,100739.59
2023-06-25T06:53:13.305Z,100733.31
2023-06-25T06:58:12.114Z,100726.56
2023-06-25T07:03:10.883Z,100726.13
2023-06-25T07:08:09.844Z,100715.56
2023-06-25T07:13:11.324Z,100707.06
2023-06-25T07:18:11.428Z,100716.75
2023-06-25T07:23:10.515Z,100702.03
2023-06-25T07:28:13.923Z,100709.03
2023-06-25T07:33:12.753Z,100710.22
2023-06-25T07:38:11.940Z,100705.69
2023-06-25T07:43:13.184Z,100704.13
2023-06-25T07:48:12.070Z,100702.56
2023-06-25T07:53:10.818Z,100692.13
2023-06-25T07:58:10.141Z,100697.56
2023-06-25T08:03:17.847Z,100687.50
2023-06-25T08:08:19.815Z,100683.03
2023-06-25T08:13:18.464Z,100686.09
2023-06-25T08:18:18.812Z,100671.03
2023-06-25T08:23:20.833Z,100656.38
2023-06-25T08:28:19.746Z,100655.38
2023-06-25T08:33:24.934Z,100657.66
2023-06-25T08:38:23.819Z,100652.50
2023-06-25T08:43:22.803Z,100631.50
2023-06-25T08:48:25.911Z,100628.66
2023-06-25T08:53:28.432Z,100621.81
2023-06-25T08:58:30.567Z,100618.72
2023-06-25T09:03:30.799Z,100619.78
2023-06-25T09:08:30.604Z,100610.84
2023-06-25T09:13:30.741Z,100606.63
2023-06-25T09:18:31.864Z,100602.81
2023-06-25T09:23:33.439Z,100606.22
2023-06-25T09:28:32.474Z,100591.63
2023-06-25T09:33:35.553Z,100592.44
2023-06-25T09:38:35.100Z,100587.16
2023-06-25T09:43:34.562Z,100575.75
2023-06-25T09:48:35.660Z,100570.75
2023-06-25T09:53:39.125Z,100566.34
2023-06-25T09:58:39.192Z,100565.13
2023-06-25T10:03:40.260Z,100563.91
2023-06-25T10:08:41.367Z,100559.88
2023-06-25T10:13:42.064Z,100556.25
2023-06-25T10:18:44.381Z,100560.06
2023-06-25T10:23:43.171Z,100545.97
2023-06-25T10:28:43.210Z,100545.50
2023-06-25T10:33:44.118Z,100538.84
2023-06-25T10:38:45.464Z,100540.13
2023-06-25T10:43:46.043Z,100527.50
2023-06-25T10:48:48.527Z,100528.88
2023-06-25T10:53:47.480Z,100525.31
2023-06-25T10:58:46.448Z,100518.19
2023-06-25T11:03:45.552Z,100503.47
2023-06-25T11:08:46.609Z,100493.88
2023-06-25T11:13:45.338Z,100477.94
2023-06-25T11:18:44.415Z,100461.81
2023-06-25T11:23:46.413Z,100454.34
2023-06-25T11:28:45.231Z,100448.66
2023-06-25T11:33:43.997Z,100429.41
2023-06-25T11:38:47.454Z,100418.50
2023-06-25T11:43:46.210Z,100406.63
2023-06-25T11:48:49.741Z,100403.50
2023-06-25T11:53:49.870Z,100397.72
2023-06-25T11:58:48.688Z,100394.00
2023-06-25T12:03:47.556Z,100383.31
2023-06-25T12:08:46.461Z,100378.13
2023-06-25T12:13:46.741Z,100377.00
2023-06-25T12:18:45.577Z,100366.38
2023-06-25T12:23:44.387Z,100364.63
2023-06-25T12:28:43.234Z,100357.13
2023-06-25T12:33:43.500Z,100343.50
2023-06-25T12:38:42.302Z,100333.25
2023-06-25T12:43:41.180Z,100341.56
2023-06-25T12:48:39.963Z,100341.03
2023-06-25T12:53:40.225Z,100344.09
2023-06-25T12:58:39.033Z,100352.28
2023-06-25T13:03:40.615Z,100349.00
2023-06-25T13:08:40.975Z,100361.38
2023-06-25T13:13:42.914Z,100360.44
2023-06-25T13:18:42.644Z,100392.28
2023-06-25T13:23:42.818Z,100400.91
2023-06-25T13:28:41.768Z,100425.50
2023-06-25T13:33:40.536Z,100454.88
2023-06-25T13:38:40.792Z,100484.75
2023-06-25T13:43:40.873Z,100527.41
2023-06-25T13:48:39.646Z,100529.03
2023-06-25T13:53:38.595Z,100524.69
2023-06-25T13:58:38.402Z,100495.66
2023-06-25T14:03:38.832Z,100497.91
2023-06-25T14:08:37.591Z,100505.81
2023-06-25T14:13:37.070Z,100517.06
2023-06-25T14:18:35.842Z,100511.09
2023-06-25T14:23:35.954Z,100503.13
2023-06-25T14:28:36.889Z,100492.59
2023-06-25T14:33:36.503Z,100483.47
2023-06-25T14:38:37.461Z,100473.78
2023-06-25T14:43:36.626Z,100492.56
2023-06-25T14:48:35.624Z,100493.78
2023-06-25T14:53:37.370Z,100492.00
2023-06-25T14:58:37.502Z,100499.28
2023-06-25T15:03:36.427Z,100502.09
2023-06-25T15:08:35.438Z,100513.31
2023-06-25T15:13:34.287Z,100517.66
2023-06-25T15:18:37.071Z,100514.31
2023-06-25T15:23:35.997Z,100516.34
2023-06-25T15:28:34.807Z,100503.94
2023-06-25T15:33:35.015Z,100505.38
2023-06-25T15:38:33.856Z,100507.13
2023-06-25T15:43:32.808Z,100512.38
2023-06-25T15:48:31.834Z,100496.41
2023-06-25T15:53:32.044Z,100490.69
2023-06-25T15:58:30.793Z,100490.47
2023-06-25T16:03:30.542Z,100494.53
2023-06-25T16:08:29.788Z,100481.41
2023-06-25T16:13:30.135Z,100479.88
2023-06-25T16:18:29.038Z,100484.50
2023-06-25T16:23:27.936Z,100475.84
2023-06-25T16:28:26.700Z,100471.41
2023-06-25T16:33:26.885Z,100477.25
2023-06-25T16:38:25.784Z,100467.03
2023-06-25T16:43:24.587Z,100481.66
2023-06-25T16:48:23.612Z,100496.41
2023-06-25T16:53:23.890Z,100472.16
2023-06-25T16:58:22.848Z,100477.16
2023-06-25T17:03:22.016Z,100487.63
2023-06-25T17:08:20.854Z,100493.38
2023-06-25T17:13:21.147Z,100484.25
2023-06-25T17:18:20.086Z,100493.13
2023-06-25T17:23:20.776Z,100497.38
2023-06-25T17:28:21.098Z,100492.94
2023-06-25T17:33:19.920Z,100496.81
2023-06-25T17:38:18.672Z,100489.22
2023-06-25T17:43:21.140Z,100482.88
2023-06-25T17:48:35.819Z,100478.16
2023-06-25T17:53:36.648Z,100464.06
2023-06-25T17:58:36.641Z,100454.31
2023-06-25T18:03:38.153Z,100439.53
2023-06-25T18:08:37.162Z,100442.28
2023-06-25T18:13:35.928Z,100462.13
2023-06-25T18:18:39.551Z,100472.22
2023-06-25T18:23:38.636Z,100472.88
2023-06-25T18:28:37.560Z,100494.22
2023-06-25T18:33:37.802Z,100485.66
2023-06-25T18:38:36.735Z,100485.16
2023-06-25T18:43:35.570Z,100502.78
2023-06-25T18:48:34.621Z,100531.72
2023-06-25T18:53:34.868Z,100540.19
2023-06-25T18:58:33.763Z,100542.41
2023-06-25T19:03:32.758Z,100548.97
2023-06-25T19:08:32.013Z,100565.63
2023-06-25T19:13:32.237Z,100565.75
2023-06-25T19:18:31.932Z,100573.47
2023-06-25T19:23:30.894Z,100577.47
2023-06-25T19:28:31.208Z,100566.22
2023-06-25T19:33:30.100Z,100558.66
2023-06-25T19:38:29.039Z,100544.41
2023-06-25T19:43:29.082Z,100535.88
2023-06-25T19:48:29.988Z,100532.50
2023-06-25T19:53:30.236Z,100522.75
2023-06-25T19:58:29.346Z,100514.84
2023-06-25T20:03:32.271Z,100495.47
2023-06-25T20:08:31.692Z,100491.63
2023-06-25T20:13:33.380Z,100478.69
2023-06-25T20:18:33.779Z,100486.44
2023-06-25T20:23:33.554Z,100498.22
2023-06-25T20:28:35.278Z,100511.41
2023-06-25T20:33:35.447Z,100515.81
2023-06-25T20:38:36.772Z,100511.72
2023-06-25T20:43:36.710Z,100515.41
2023-06-25T20:48:36.942Z,100507.19
2023-06-25T20:53:36.744Z,100510.72
2023-06-25T20:58:40.484Z,100509.38
2023-06-25T21:03:40.640Z,100514.06
2023-06-25T21:08:39.397Z,100512.09
2023-06-25T21:13:38.208Z,100518.47
2023-06-25T21:18:36.965Z,100515.97
2023-06-25T21:23:37.080Z,100521.16
2023-06-25T21:28:35.826Z,100526.91
2023-06-25T21:33:34.650Z,100525.44
2023-06-25T21:38:33.410Z,100532.81
2023-06-25T21:43:34.236Z,100537.72
2023-06-25T21:48:33.099Z,100550.88
2023-06-25T21:53:35.595Z,100555.44
2023-06-25T21:58:35.886Z,100545.38
2023-06-25T22:03:36.377Z,100567.34
2023-06-25T22:08:35.159Z,100558.28
2023-06-25T22:13:35.550Z,100559.97
2023-06-25T22:18:38.101Z,100560.81
2023-06-25T22:23:36.964Z,100566.38
2023-06-25T22:28:37.042Z,100567.91
2023-06-25T22:33:35.796Z,100573.16
2023-06-25T22:38:34.637Z,100568.59
2023-06-25T22:43:33.453Z,100564.56
2023-06-25T22:48:33.641Z,100571.78
2023-06-25T22:53:32.543Z,100571.13
2023-06-25T22:58:31.252Z,100561.56
2023-06-25T23:03:30.127Z,100563.56
2023-06-25T23:08:30.247Z,100557.50
2023-06-25T23:13:28.981Z,100553.16
2023-06-25T23:18:27.837Z,100554.00
2023-06-25T23:23:26.764Z,100545.59
2023-06-25T23:28:27.469Z,100531.34
2023-06-25T23:33:30.349Z,100525.13
2023-06-25T23:38:29.153Z,100532.16
2023-06-25T23:43:29.322Z,100530.50
2023-06-25T23:48:29.879Z,100521.41
2023-06-25T23:53:29.888Z,100526.47
2023-06-25T23:58:30.032Z,100523.47
